sensor_id;sensor_type;location;lat;lon;timestamp;P1;durP1;ratioP1;P2;durP2;ratioP2
50976;SDS011;36992;48.200;12.418;2022-11-04T00:01:45;9.55;;;5.80;;
50976;SDS011;36992;48.200;12.418;2022-11-04T00:04:14;14.18;;;8.15;;
50976;SDS011;36992;48.200;12.418;2022-11-04T00:06:42;17.10;;;11.40;;
50976;SDS011;36992;48.200;12.418;2022-11-04T00:09:10;15.20;;;9.77;;
50976;SDS011;36992;48.200;12.418;2022-11-04T00:11:38;11.13;;;7.57;;
50976;SDS011;36992;48.200;12.418;2022-11-04T00:14:22;14.15;;;8.18;;
50976;SDS011;36992;48.200;12.418;2022-11-04T00:16:48;10.23;;;6.60;;
50976;SDS011;36992;48.200;12.418;2022-11-04T00:19:34;9.80;;;5.30;;
50976;SDS011;36992;48.200;12.418;2022-11-04T00:22:14;7.32;;;3.70;;
50976;SDS011;36992;48.200;12.418;2022-11-04T00:24:59;5.57;;;2.65;;
50976;SDS011;36992;48.200;12.418;2022-11-04T00:27:43;3.28;;;1.80;;
50976;SDS011;36992;48.200;12.418;2022-11-04T00:30:27;4.38;;;2.28;;
50976;SDS011;36992;48.200;12.418;2022-11-04T00:32:53;5.78;;;2.17;;
50976;SDS011;36992;48.200;12.418;2022-11-04T00:35:39;6.07;;;2.88;;
50976;SDS011;36992;48.200;12.418;2022-11-04T00:38:06;4.50;;;1.65;;
50976;SDS011;36992;48.200;12.418;2022-11-04T00:40:32;5.28;;;2.25;;
50976;SDS011;36992;48.200;12.418;2022-11-04T00:42:59;3.53;;;1.67;;
50976;SDS011;36992;48.200;12.418;2022-11-04T00:45:25;5.25;;;2.00;;
50976;SDS011;36992;48.200;12.418;2022-11-04T00:47:52;3.60;;;1.75;;
50976;SDS011;36992;48.200;12.418;2022-11-04T00:50:18;3.63;;;1.58;;
50976;SDS011;36992;48.200;12.418;2022-11-04T00:52:46;3.38;;;1.60;;
50976;SDS011;36992;48.200;12.418;2022-11-04T00:55:13;4.97;;;1.70;;
50976;SDS011;36992;48.200;12.418;2022-11-04T00:57:40;3.72;;;1.88;;
50976;SDS011;36992;48.200;12.418;2022-11-04T01:00:07;5.15;;;1.67;;
50976;SDS011;36992;48.200;12.418;2022-11-04T01:02:34;3.72;;;2.00;;
50976;SDS011;36992;48.200;12.418;2022-11-04T01:05:01;4.07;;;1.55;;
50976;SDS011;36992;48.200;12.418;2022-11-04T01:07:27;3.40;;;1.63;;
50976;SDS011;36992;48.200;12.418;2022-11-04T01:09:55;3.63;;;1.85;;
50976;SDS011;36992;48.200;12.418;2022-11-04T01:12:22;2.92;;;1.50;;
50976;SDS011;36992;48.200;12.418;2022-11-04T01:14:49;3.08;;;1.50;;
50976;SDS011;36992;48.200;12.418;2022-11-04T01:17:16;3.50;;;1.73;;
50976;SDS011;36992;48.200;12.418;2022-11-04T01:19:42;3.63;;;1.10;;
50976;SDS011;36992;48.200;12.418;2022-11-04T01:22:09;2.65;;;1.42;;
50976;SDS011;36992;48.200;12.418;2022-11-04T01:24:36;3.58;;;1.23;;
50976;SDS011;36992;48.200;12.418;2022-11-04T01:27:04;2.33;;;0.95;;
50976;SDS011;36992;48.200;12.418;2022-11-04T01:29:30;2.65;;;0.85;;
50976;SDS011;36992;48.200;12.418;2022-11-04T01:31:57;2.45;;;1.10;;
50976;SDS011;36992;48.200;12.418;2022-11-04T01:34:23;2.28;;;1.00;;
50976;SDS011;36992;48.200;12.418;2022-11-04T01:36:50;2.67;;;1.00;;
50976;SDS011;36992;48.200;12.418;2022-11-04T01:39:17;1.98;;;0.85;;
50976;SDS011;36992;48.200;12.418;2022-11-04T01:41:43;2.03;;;0.80;;
50976;SDS011;36992;48.200;12.418;2022-11-04T01:47:13;2.10;;;0.80;;
50976;SDS011;36992;48.200;12.418;2022-11-04T01:49:42;1.70;;;0.82;;
50976;SDS011;36992;48.200;12.418;2022-11-04T01:52:13;2.53;;;0.90;;
50976;SDS011;36992;48.200;12.418;2022-11-04T01:54:43;2.70;;;1.40;;
50976;SDS011;36992;48.200;12.418;2022-11-04T01:57:14;3.83;;;1.15;;
50976;SDS011;36992;48.200;12.418;2022-11-04T01:59:47;3.00;;;1.35;;
50976;SDS011;36992;48.200;12.418;2022-11-04T02:02:14;1.98;;;0.70;;
50976;SDS011;36992;48.200;12.418;2022-11-04T02:04:41;2.50;;;0.65;;
50976;SDS011;36992;48.200;12.418;2022-11-04T02:07:09;2.78;;;1.05;;
50976;SDS011;36992;48.200;12.418;2022-11-04T02:09:38;3.00;;;0.50;;
50976;SDS011;36992;48.200;12.418;2022-11-04T02:12:06;2.20;;;0.82;;
50976;SDS011;36992;48.200;12.418;2022-11-04T02:14:52;2.28;;;0.77;;
50976;SDS011;36992;48.200;12.418;2022-11-04T02:17:32;1.20;;;0.40;;
50976;SDS011;36992;48.200;12.418;2022-11-04T02:20:14;2.40;;;0.32;;
50976;SDS011;36992;48.200;12.418;2022-11-04T02:23:01;1.90;;;0.63;;
50976;SDS011;36992;48.200;12.418;2022-11-04T02:25:52;2.45;;;0.65;;
50976;SDS011;36992;48.200;12.418;2022-11-04T02:28:43;1.80;;;0.68;;
50976;SDS011;36992;48.200;12.418;2022-11-04T02:31:22;1.98;;;0.60;;
50976;SDS011;36992;48.200;12.418;2022-11-04T02:33:58;2.50;;;0.95;;
50976;SDS011;36992;48.200;12.418;2022-11-04T02:36:32;2.47;;;0.82;;
50976;SDS011;36992;48.200;12.418;2022-11-04T02:39:10;2.30;;;0.30;;
50976;SDS011;36992;48.200;12.418;2022-11-04T02:41:50;1.23;;;0.43;;
50976;SDS011;36992;48.200;12.418;2022-11-04T02:44:23;1.52;;;0.30;;
50976;SDS011;36992;48.200;12.418;2022-11-04T02:46:57;2.55;;;0.45;;
50976;SDS011;36992;48.200;12.418;2022-11-04T02:49:31;2.40;;;0.68;;
50976;SDS011;36992;48.200;12.418;2022-11-04T02:52:04;1.20;;;0.50;;
50976;SDS011;36992;48.200;12.418;2022-11-04T02:54:33;1.17;;;0.28;;
50976;SDS011;36992;48.200;12.418;2022-11-04T02:57:05;4.10;;;1.42;;
50976;SDS011;36992;48.200;12.418;2022-11-04T02:59:34;5.53;;;1.92;;
50976;SDS011;36992;48.200;12.418;2022-11-04T03:02:06;3.47;;;1.30;;
50976;SDS011;36992;48.200;12.418;2022-11-04T03:04:36;3.50;;;0.93;;
50976;SDS011;36992;48.200;12.418;2022-11-04T03:07:07;1.65;;;0.57;;
50976;SDS011;36992;48.200;12.418;2022-11-04T03:09:37;1.23;;;0.30;;
50976;SDS011;36992;48.200;12.418;2022-11-04T03:12:08;1.77;;;0.52;;
50976;SDS011;36992;48.200;12.418;2022-11-04T03:14:39;5.05;;;0.70;;
50976;SDS011;36992;48.200;12.418;2022-11-04T03:17:11;9.85;;;1.85;;
50976;SDS011;36992;48.200;12.418;2022-11-04T03:22:15;11.77;;;2.72;;
50976;SDS011;36992;48.200;12.418;2022-11-04T03:24:44;13.93;;;2.10;;
50976;SDS011;36992;48.200;12.418;2022-11-04T03:27:15;7.32;;;1.50;;
50976;SDS011;36992;48.200;12.418;2022-11-04T03:29:50;7.53;;;1.20;;
50976;SDS011;36992;48.200;12.418;2022-11-04T03:32:26;2.88;;;0.60;;
50976;SDS011;36992;48.200;12.418;2022-11-04T03:35:01;1.83;;;0.50;;
50976;SDS011;36992;48.200;12.418;2022-11-04T03:37:28;5.53;;;1.55;;
50976;SDS011;36992;48.200;12.418;2022-11-04T03:39:55;6.90;;;1.23;;
50976;SDS011;36992;48.200;12.418;2022-11-04T03:42:22;4.50;;;0.88;;
50976;SDS011;36992;48.200;12.418;2022-11-04T03:44:49;13.20;;;2.20;;
50976;SDS011;36992;48.200;12.418;2022-11-04T03:47:18;11.68;;;2.75;;
50976;SDS011;36992;48.200;12.418;2022-11-04T03:49:48;7.72;;;1.02;;
50976;SDS011;36992;48.200;12.418;2022-11-04T03:52:17;10.02;;;1.52;;
50976;SDS011;36992;48.200;12.418;2022-11-04T03:54:45;8.15;;;1.35;;
50976;SDS011;36992;48.200;12.418;2022-11-04T03:57:18;11.77;;;2.10;;
50976;SDS011;36992;48.200;12.418;2022-11-04T04:00:03;13.65;;;2.38;;
50976;SDS011;36992;48.200;12.418;2022-11-04T04:02:45;9.38;;;2.10;;
50976;SDS011;36992;48.200;12.418;2022-11-04T04:05:25;9.10;;;1.45;;
50976;SDS011;36992;48.200;12.418;2022-11-04T04:07:57;7.10;;;1.00;;
50976;SDS011;36992;48.200;12.418;2022-11-04T04:10:32;7.15;;;1.15;;
50976;SDS011;36992;48.200;12.418;2022-11-04T04:13:08;4.15;;;0.60;;
50976;SDS011;36992;48.200;12.418;2022-11-04T04:15:43;9.40;;;1.95;;
50976;SDS011;36992;48.200;12.418;2022-11-04T04:18:15;3.70;;;1.02;;
50976;SDS011;36992;48.200;12.418;2022-11-04T04:20:50;3.50;;;0.60;;
50976;SDS011;36992;48.200;12.418;2022-11-04T04:23:21;5.82;;;1.02;;
50976;SDS011;36992;48.200;12.418;2022-11-04T04:26:09;4.30;;;0.70;;
50976;SDS011;36992;48.200;12.418;2022-11-04T04:28:55;5.10;;;0.90;;
50976;SDS011;36992;48.200;12.418;2022-11-04T04:31:25;8.25;;;0.90;;
50976;SDS011;36992;48.200;12.418;2022-11-04T04:34:11;3.85;;;0.45;;
50976;SDS011;36992;48.200;12.418;2022-11-04T04:36:40;3.17;;;0.73;;
50976;SDS011;36992;48.200;12.418;2022-11-04T04:39:11;1.80;;;0.40;;
50976;SDS011;36992;48.200;12.418;2022-11-04T04:41:59;1.83;;;0.30;;
50976;SDS011;36992;48.200;12.418;2022-11-04T04:44:44;4.70;;;0.50;;
50976;SDS011;36992;48.200;12.418;2022-11-04T04:47:26;2.20;;;0.40;;
50976;SDS011;36992;48.200;12.418;2022-11-04T04:49:58;1.42;;;0.55;;
50976;SDS011;36992;48.200;12.418;2022-11-04T04:52:28;2.88;;;0.30;;
50976;SDS011;36992;48.200;12.418;2022-11-04T04:54:57;2.25;;;0.47;;
50976;SDS011;36992;48.200;12.418;2022-11-04T04:57:23;1.02;;;0.30;;
50976;SDS011;36992;48.200;12.418;2022-11-04T04:59:50;1.85;;;0.30;;
50976;SDS011;36992;48.200;12.418;2022-11-04T05:02:17;2.35;;;0.30;;
50976;SDS011;36992;48.200;12.418;2022-11-04T05:04:43;0.95;;;0.20;;
50976;SDS011;36992;48.200;12.418;2022-11-04T05:07:10;1.67;;;0.32;;
50976;SDS011;36992;48.200;12.418;2022-11-04T05:09:38;1.17;;;0.30;;
50976;SDS011;36992;48.200;12.418;2022-11-04T05:12:05;1.23;;;0.30;;
50976;SDS011;36992;48.200;12.418;2022-11-04T05:14:31;2.08;;;0.50;;
50976;SDS011;36992;48.200;12.418;2022-11-04T05:16:58;2.88;;;0.60;;
50976;SDS011;36992;48.200;12.418;2022-11-04T05:19:25;3.42;;;0.60;;
50976;SDS011;36992;48.200;12.418;2022-11-04T05:21:51;1.40;;;0.40;;
50976;SDS011;36992;48.200;12.418;2022-11-04T05:24:18;2.47;;;0.77;;
50976;SDS011;36992;48.200;12.418;2022-11-04T05:26:46;2.10;;;0.90;;
50976;SDS011;36992;48.200;12.418;2022-11-04T05:29:13;1.35;;;0.30;;
50976;SDS011;36992;48.200;12.418;2022-11-04T05:31:40;1.20;;;0.30;;
50976;SDS011;36992;48.200;12.418;2022-11-04T05:34:08;1.48;;;0.45;;
50976;SDS011;36992;48.200;12.418;2022-11-04T05:36:35;1.30;;;0.22;;
50976;SDS011;36992;48.200;12.418;2022-11-04T05:39:02;0.60;;;0.20;;
50976;SDS011;36992;48.200;12.418;2022-11-04T05:41:29;1.38;;;0.30;;
50976;SDS011;36992;48.200;12.418;2022-11-04T05:43:58;0.80;;;0.30;;
50976;SDS011;36992;48.200;12.418;2022-11-04T05:46:26;0.85;;;0.30;;
50976;SDS011;36992;48.200;12.418;2022-11-04T05:48:53;0.90;;;0.20;;
50976;SDS011;36992;48.200;12.418;2022-11-04T05:51:22;1.67;;;0.68;;
50976;SDS011;36992;48.200;12.418;2022-11-04T05:53:50;0.90;;;0.28;;
50976;SDS011;36992;48.200;12.418;2022-11-04T05:56:17;1.38;;;0.32;;
50976;SDS011;36992;48.200;12.418;2022-11-04T05:58:44;3.47;;;0.50;;
50976;SDS011;36992;48.200;12.418;2022-11-04T06:01:12;1.48;;;0.43;;
50976;SDS011;36992;48.200;12.418;2022-11-04T06:03:49;4.63;;;1.45;;
50976;SDS011;36992;48.200;12.418;2022-11-04T06:06:16;1.83;;;0.45;;
50976;SDS011;36992;48.200;12.418;2022-11-04T06:08:43;1.85;;;0.50;;
50976;SDS011;36992;48.200;12.418;2022-11-04T06:11:09;1.60;;;0.40;;
50976;SDS011;36992;48.200;12.418;2022-11-04T06:13:36;1.65;;;0.40;;
50976;SDS011;36992;48.200;12.418;2022-11-04T06:16:03;1.30;;;0.30;;
50976;SDS011;36992;48.200;12.418;2022-11-04T06:18:31;0.63;;;0.17;;
50976;SDS011;36992;48.200;12.418;2022-11-04T06:21:07;1.58;;;0.30;;
50976;SDS011;36992;48.200;12.418;2022-11-04T06:23:35;12.43;;;0.68;;
50976;SDS011;36992;48.200;12.418;2022-11-04T06:26:02;2.25;;;0.30;;
50976;SDS011;36992;48.200;12.418;2022-11-04T06:28:29;0.93;;;0.20;;
50976;SDS011;36992;48.200;12.418;2022-11-04T06:30:56;0.52;;;0.15;;
50976;SDS011;36992;48.200;12.418;2022-11-04T06:33:23;0.45;;;0.10;;
50976;SDS011;36992;48.200;12.418;2022-11-04T06:35:51;0.65;;;0.32;;
50976;SDS011;36992;48.200;12.418;2022-11-04T06:38:18;0.90;;;0.38;;
50976;SDS011;36992;48.200;12.418;2022-11-04T06:40:44;0.68;;;0.20;;
50976;SDS011;36992;48.200;12.418;2022-11-04T06:43:11;1.65;;;0.30;;
50976;SDS011;36992;48.200;12.418;2022-11-04T06:45:38;0.95;;;0.20;;
50976;SDS011;36992;48.200;12.418;2022-11-04T06:48:05;1.02;;;0.30;;
50976;SDS011;36992;48.200;12.418;2022-11-04T06:50:31;0.75;;;0.20;;
50976;SDS011;36992;48.200;12.418;2022-11-04T06:52:59;1.08;;;0.30;;
50976;SDS011;36992;48.200;12.418;2022-11-04T06:55:26;1.40;;;0.20;;
50976;SDS011;36992;48.200;12.418;2022-11-04T06:57:53;0.93;;;0.20;;
50976;SDS011;36992;48.200;12.418;2022-11-04T07:00:19;2.55;;;0.32;;
50976;SDS011;36992;48.200;12.418;2022-11-04T07:02:46;1.17;;;0.30;;
50976;SDS011;36992;48.200;12.418;2022-11-04T07:05:13;0.77;;;0.20;;
50976;SDS011;36992;48.200;12.418;2022-11-04T07:07:40;0.77;;;0.17;;
50976;SDS011;36992;48.200;12.418;2022-11-04T07:10:08;1.33;;;0.25;;
50976;SDS011;36992;48.200;12.418;2022-11-04T07:12:35;0.57;;;0.20;;
50976;SDS011;36992;48.200;12.418;2022-11-04T07:15:02;1.23;;;0.20;;
50976;SDS011;36992;48.200;12.418;2022-11-04T07:17:29;1.08;;;0.30;;
50976;SDS011;36992;48.200;12.418;2022-11-04T07:19:56;0.98;;;0.35;;
50976;SDS011;36992;48.200;12.418;2022-11-04T07:22:22;0.80;;;0.25;;
50976;SDS011;36992;48.200;12.418;2022-11-04T07:24:49;0.80;;;0.30;;
50976;SDS011;36992;48.200;12.418;2022-11-04T07:27:17;2.58;;;0.38;;
50976;SDS011;36992;48.200;12.418;2022-11-04T07:29:44;1.40;;;0.30;;
50976;SDS011;36992;48.200;12.418;2022-11-04T07:32:10;1.08;;;0.20;;
50976;SDS011;36992;48.200;12.418;2022-11-04T07:34:40;0.52;;;0.13;;
50976;SDS011;36992;48.200;12.418;2022-11-04T07:37:06;0.75;;;0.30;;
50976;SDS011;36992;48.200;12.418;2022-11-04T07:39:33;2.40;;;0.47;;
50976;SDS011;36992;48.200;12.418;2022-11-04T07:41:59;1.20;;;0.30;;
50976;SDS011;36992;48.200;12.418;2022-11-04T07:44:27;0.70;;;0.20;;
50976;SDS011;36992;48.200;12.418;2022-11-04T07:46:54;1.23;;;0.28;;
50976;SDS011;36992;48.200;12.418;2022-11-04T07:49:21;0.80;;;0.10;;
50976;SDS011;36992;48.200;12.418;2022-11-04T07:51:47;0.35;;;0.10;;
50976;SDS011;36992;48.200;12.418;2022-11-04T07:54:14;0.77;;;0.45;;
50976;SDS011;36992;48.200;12.418;2022-11-04T07:56:40;1.58;;;0.43;;
50976;SDS011;36992;48.200;12.418;2022-11-04T07:59:07;2.30;;;0.28;;
50976;SDS011;36992;48.200;12.418;2022-11-04T08:01:36;2.58;;;0.40;;
50976;SDS011;36992;48.200;12.418;2022-11-04T08:04:03;1.65;;;0.65;;
50976;SDS011;36992;48.200;12.418;2022-11-04T08:06:31;0.70;;;0.10;;
50976;SDS011;36992;48.200;12.418;2022-11-04T08:08:57;0.68;;;0.20;;
50976;SDS011;36992;48.200;12.418;2022-11-04T08:11:24;0.20;;;0.10;;
50976;SDS011;36992;48.200;12.418;2022-11-04T08:13:52;0.57;;;0.20;;
50976;SDS011;36992;48.200;12.418;2022-11-04T08:16:20;0.30;;;0.10;;
50976;SDS011;36992;48.200;12.418;2022-11-04T08:18:50;0.20;;;0.10;;
50976;SDS011;36992;48.200;12.418;2022-11-04T08:21:17;1.15;;;0.20;;
50976;SDS011;36992;48.200;12.418;2022-11-04T08:23:45;0.73;;;0.10;;
50976;SDS011;36992;48.200;12.418;2022-11-04T08:26:14;0.35;;;0.10;;
50976;SDS011;36992;48.200;12.418;2022-11-04T08:28:42;2.35;;;0.20;;
50976;SDS011;36992;48.200;12.418;2022-11-04T08:31:10;0.80;;;0.10;;
50976;SDS011;36992;48.200;12.418;2022-11-04T08:33:39;2.10;;;0.20;;
50976;SDS011;36992;48.200;12.418;2022-11-04T08:36:08;0.25;;;0.10;;
50976;SDS011;36992;48.200;12.418;2022-11-04T08:38:38;0.63;;;0.13;;
50976;SDS011;36992;48.200;12.418;2022-11-04T08:41:05;0.80;;;0.20;;
50976;SDS011;36992;48.200;12.418;2022-11-04T08:43:33;4.45;;;0.90;;
50976;SDS011;36992;48.200;12.418;2022-11-04T08:46:01;0.90;;;0.28;;
50976;SDS011;36992;48.200;12.418;2022-11-04T08:48:29;1.40;;;0.30;;
50976;SDS011;36992;48.200;12.418;2022-11-04T08:50:56;0.93;;;0.30;;
50976;SDS011;36992;48.200;12.418;2022-11-04T08:53:25;0.75;;;0.20;;
50976;SDS011;36992;48.200;12.418;2022-11-04T08:55:52;2.35;;;0.20;;
50976;SDS011;36992;48.200;12.418;2022-11-04T08:58:19;0.68;;;0.17;;
50976;SDS011;36992;48.200;12.418;2022-11-04T09:00:47;0.60;;;0.10;;
50976;SDS011;36992;48.200;12.418;2022-11-04T09:03:14;1.70;;;0.20;;
50976;SDS011;36992;48.200;12.418;2022-11-04T09:05:41;1.02;;;0.20;;
50976;SDS011;36992;48.200;12.418;2022-11-04T09:08:09;1.88;;;0.20;;
50976;SDS011;36992;48.200;12.418;2022-11-04T09:10:40;1.23;;;0.38;;
50976;SDS011;36992;48.200;12.418;2022-11-04T09:13:08;1.38;;;0.25;;
50976;SDS011;36992;48.200;12.418;2022-11-04T09:15:35;0.75;;;0.15;;
50976;SDS011;36992;48.200;12.418;2022-11-04T09:18:03;1.23;;;0.47;;
50976;SDS011;36992;48.200;12.418;2022-11-04T09:20:30;0.30;;;0.10;;
50976;SDS011;36992;48.200;12.418;2022-11-04T09:22:56;0.52;;;0.17;;
50976;SDS011;36992;48.200;12.418;2022-11-04T09:25:23;2.35;;;0.30;;
50976;SDS011;36992;48.200;12.418;2022-11-04T09:27:52;0.70;;;0.22;;
50976;SDS011;36992;48.200;12.418;2022-11-04T09:30:18;1.38;;;0.30;;
50976;SDS011;36992;48.200;12.418;2022-11-04T09:32:45;1.27;;;0.10;;
50976;SDS011;36992;48.200;12.418;2022-11-04T09:35:12;0.60;;;0.20;;
50976;SDS011;36992;48.200;12.418;2022-11-04T09:37:40;1.05;;;0.20;;
50976;SDS011;36992;48.200;12.418;2022-11-04T09:40:08;0.93;;;0.30;;
50976;SDS011;36992;48.200;12.418;2022-11-04T09:42:41;2.83;;;0.22;;
50976;SDS011;36992;48.200;12.418;2022-11-04T09:45:20;0.82;;;0.15;;
50976;SDS011;36992;48.200;12.418;2022-11-04T09:47:51;0.63;;;0.10;;
50976;SDS011;36992;48.200;12.418;2022-11-04T09:50:24;0.75;;;0.20;;
50976;SDS011;36992;48.200;12.418;2022-11-04T09:52:53;1.23;;;0.20;;
50976;SDS011;36992;48.200;12.418;2022-11-04T09:55:23;2.05;;;0.30;;
50976;SDS011;36992;48.200;12.418;2022-11-04T09:57:54;1.17;;;0.30;;
50976;SDS011;36992;48.200;12.418;2022-11-04T10:00:24;1.10;;;0.30;;
50976;SDS011;36992;48.200;12.418;2022-11-04T10:02:56;1.60;;;0.25;;
50976;SDS011;36992;48.200;12.418;2022-11-04T10:05:39;1.25;;;0.30;;
50976;SDS011;36992;48.200;12.418;2022-11-04T10:08:19;2.88;;;0.20;;
50976;SDS011;36992;48.200;12.418;2022-11-04T10:11:06;0.98;;;0.25;;
50976;SDS011;36992;48.200;12.418;2022-11-04T10:13:45;1.52;;;0.10;;
50976;SDS011;36992;48.200;12.418;2022-11-04T10:16:30;0.75;;;0.20;;
50976;SDS011;36992;48.200;12.418;2022-11-04T10:19:16;0.90;;;0.10;;
50976;SDS011;36992;48.200;12.418;2022-11-04T10:21:54;2.65;;;0.10;;
50976;SDS011;36992;48.200;12.418;2022-11-04T10:24:30;0.95;;;0.20;;
50976;SDS011;36992;48.200;12.418;2022-11-04T10:27:08;0.68;;;0.10;;
50976;SDS011;36992;48.200;12.418;2022-11-04T10:29:42;0.57;;;0.17;;
50976;SDS011;36992;48.200;12.418;2022-11-04T10:32:12;0.65;;;0.15;;
50976;SDS011;36992;48.200;12.418;2022-11-04T10:34:43;0.90;;;0.10;;
50976;SDS011;36992;48.200;12.418;2022-11-04T10:37:13;0.50;;;0.10;;
50976;SDS011;36992;48.200;12.418;2022-11-04T10:39:41;0.70;;;0.20;;
50976;SDS011;36992;48.200;12.418;2022-11-04T10:42:10;0.90;;;0.20;;
50976;SDS011;36992;48.200;12.418;2022-11-04T10:44:38;1.13;;;0.28;;
50976;SDS011;36992;48.200;12.418;2022-11-04T10:47:08;0.63;;;0.20;;
50976;SDS011;36992;48.200;12.418;2022-11-04T10:49:58;1.02;;;0.28;;
50976;SDS011;36992;48.200;12.418;2022-11-04T10:52:34;0.30;;;0.10;;
50976;SDS011;36992;48.200;12.418;2022-11-04T10:55:02;0.40;;;0.10;;
50976;SDS011;36992;48.200;12.418;2022-11-04T10:57:36;0.55;;;0.20;;
50976;SDS011;36992;48.200;12.418;2022-11-04T11:00:04;0.88;;;0.13;;
50976;SDS011;36992;48.200;12.418;2022-11-04T11:02:43;1.02;;;0.20;;
50976;SDS011;36992;48.200;12.418;2022-11-04T11:05:12;0.45;;;0.20;;
50976;SDS011;36992;48.200;12.418;2022-11-04T11:07:46;0.63;;;0.10;;
50976;SDS011;36992;48.200;12.418;2022-11-04T11:10:15;0.52;;;0.10;;
50976;SDS011;36992;48.200;12.418;2022-11-04T11:12:49;1.25;;;0.10;;
50976;SDS011;36992;48.200;12.418;2022-11-04T11:15:18;0.35;;;0.10;;
50976;SDS011;36992;48.200;12.418;2022-11-04T11:17:57;0.40;;;0.10;;
50976;SDS011;36992;48.200;12.418;2022-11-04T11:20:28;0.52;;;0.10;;
50976;SDS011;36992;48.200;12.418;2022-11-04T11:22:57;2.25;;;0.20;;
50976;SDS011;36992;48.200;12.418;2022-11-04T11:25:26;0.60;;;0.10;;
50976;SDS011;36992;48.200;12.418;2022-11-04T11:27:54;0.47;;;0.20;;
50976;SDS011;36992;48.200;12.418;2022-11-04T11:30:24;1.00;;;0.13;;
50976;SDS011;36992;48.200;12.418;2022-11-04T11:32:58;1.13;;;0.10;;
50976;SDS011;36992;48.200;12.418;2022-11-04T11:35:29;1.30;;;0.20;;
50976;SDS011;36992;48.200;12.418;2022-11-04T11:37:59;1.13;;;0.10;;
50976;SDS011;36992;48.200;12.418;2022-11-04T11:40:30;1.75;;;0.20;;
50976;SDS011;36992;48.200;12.418;2022-11-04T11:43:02;0.55;;;0.20;;
50976;SDS011;36992;48.200;12.418;2022-11-04T11:45:31;1.15;;;0.30;;
50976;SDS011;36992;48.200;12.418;2022-11-04T11:47:59;1.05;;;0.30;;
50976;SDS011;36992;48.200;12.418;2022-11-04T11:50:26;2.20;;;0.30;;
50976;SDS011;36992;48.200;12.418;2022-11-04T11:55:42;0.60;;;0.20;;
50976;SDS011;36992;48.200;12.418;2022-11-04T11:58:15;1.52;;;0.40;;
50976;SDS011;36992;48.200;12.418;2022-11-04T12:00:51;1.85;;;0.35;;
50976;SDS011;36992;48.200;12.418;2022-11-04T12:03:27;2.70;;;0.47;;
50976;SDS011;36992;48.200;12.418;2022-11-04T12:06:02;1.05;;;0.30;;
50976;SDS011;36992;48.200;12.418;2022-11-04T12:08:47;1.63;;;0.30;;
50976;SDS011;36992;48.200;12.418;2022-11-04T12:11:24;1.65;;;0.43;;
50976;SDS011;36992;48.200;12.418;2022-11-04T12:13:58;1.17;;;0.30;;
50976;SDS011;36992;48.200;12.418;2022-11-04T12:16:32;0.70;;;0.20;;
50976;SDS011;36992;48.200;12.418;2022-11-04T12:19:06;0.63;;;0.20;;
50976;SDS011;36992;48.200;12.418;2022-11-04T12:21:45;0.50;;;0.20;;
50976;SDS011;36992;48.200;12.418;2022-11-04T12:24:23;0.85;;;0.32;;
50976;SDS011;36992;48.200;12.418;2022-11-04T12:26:58;2.15;;;0.32;;
50976;SDS011;36992;48.200;12.418;2022-11-04T12:29:35;1.33;;;0.20;;
50976;SDS011;36992;48.200;12.418;2022-11-04T12:32:15;0.60;;;0.10;;
50976;SDS011;36992;48.200;12.418;2022-11-04T12:34:55;0.93;;;0.20;;
50976;SDS011;36992;48.200;12.418;2022-11-04T12:37:37;1.08;;;0.13;;
50976;SDS011;36992;48.200;12.418;2022-11-04T12:40:14;0.70;;;0.20;;
50976;SDS011;36992;48.200;12.418;2022-11-04T12:42:50;0.43;;;0.20;;
50976;SDS011;36992;48.200;12.418;2022-11-04T12:45:37;0.20;;;0.10;;
50976;SDS011;36992;48.200;12.418;2022-11-04T12:48:17;0.50;;;0.20;;
50976;SDS011;36992;48.200;12.418;2022-11-04T12:51:02;1.75;;;0.10;;
50976;SDS011;36992;48.200;12.418;2022-11-04T12:56:41;0.85;;;0.30;;
50976;SDS011;36992;48.200;12.418;2022-11-04T12:59:14;0.40;;;0.20;;
50976;SDS011;36992;48.200;12.418;2022-11-04T13:01:55;1.77;;;0.17;;
50976;SDS011;36992;48.200;12.418;2022-11-04T13:04:28;1.05;;;0.20;;
50976;SDS011;36992;48.200;12.418;2022-11-04T13:07:01;0.88;;;0.10;;
50976;SDS011;36992;48.200;12.418;2022-11-04T13:09:35;0.60;;;0.10;;
50976;SDS011;36992;48.200;12.418;2022-11-04T13:12:08;0.28;;;0.10;;
50976;SDS011;36992;48.200;12.418;2022-11-04T13:14:39;0.50;;;0.10;;
50976;SDS011;36992;48.200;12.418;2022-11-04T13:17:11;0.60;;;0.20;;
50976;SDS011;36992;48.200;12.418;2022-11-04T13:19:42;0.60;;;0.20;;
50976;SDS011;36992;48.200;12.418;2022-11-04T13:22:16;1.40;;;0.20;;
50976;SDS011;36992;48.200;12.418;2022-11-04T13:24:46;1.02;;;0.20;;
50976;SDS011;36992;48.200;12.418;2022-11-04T13:27:17;0.68;;;0.20;;
50976;SDS011;36992;48.200;12.418;2022-11-04T13:29:47;0.65;;;0.20;;
50976;SDS011;36992;48.200;12.418;2022-11-04T13:32:19;0.50;;;0.25;;
50976;SDS011;36992;48.200;12.418;2022-11-04T13:34:52;1.10;;;0.70;;
50976;SDS011;36992;48.200;12.418;2022-11-04T13:37:29;1.55;;;0.50;;
50976;SDS011;36992;48.200;12.418;2022-11-04T13:40:01;3.35;;;0.82;;
50976;SDS011;36992;48.200;12.418;2022-11-04T13:45:57;2.03;;;0.40;;
50976;SDS011;36992;48.200;12.418;2022-11-04T13:48:25;4.40;;;1.33;;
50976;SDS011;36992;48.200;12.418;2022-11-04T13:50:56;2.67;;;0.98;;
50976;SDS011;36992;48.200;12.418;2022-11-04T13:53:45;0.90;;;0.30;;
50976;SDS011;36992;48.200;12.418;2022-11-04T13:56:27;1.25;;;0.40;;
50976;SDS011;36992;48.200;12.418;2022-11-04T13:58:58;1.65;;;0.20;;
50976;SDS011;36992;48.200;12.418;2022-11-04T14:01:28;0.95;;;0.20;;
50976;SDS011;36992;48.200;12.418;2022-11-04T14:04:17;1.00;;;0.30;;
50976;SDS011;36992;48.200;12.418;2022-11-04T14:06:52;1.77;;;0.50;;
50976;SDS011;36992;48.200;12.418;2022-11-04T14:12:26;1.37;;;0.20;;
50976;SDS011;36992;48.200;12.418;2022-11-04T14:14:55;1.42;;;0.20;;
50976;SDS011;36992;48.200;12.418;2022-11-04T14:20:25;0.55;;;0.20;;
50976;SDS011;36992;48.200;12.418;2022-11-04T14:22:55;1.00;;;0.32;;
50976;SDS011;36992;48.200;12.418;2022-11-04T14:25:26;1.48;;;0.40;;
50976;SDS011;36992;48.200;12.418;2022-11-04T14:27:58;1.00;;;0.30;;
50976;SDS011;36992;48.200;12.418;2022-11-04T14:30:31;1.05;;;0.30;;
50976;SDS011;36992;48.200;12.418;2022-11-04T14:33:00;0.60;;;0.20;;
50976;SDS011;36992;48.200;12.418;2022-11-04T14:35:29;1.00;;;0.30;;
50976;SDS011;36992;48.200;12.418;2022-11-04T14:38:03;0.45;;;0.10;;
50976;SDS011;36992;48.200;12.418;2022-11-04T14:40:47;0.83;;;0.27;;
50976;SDS011;36992;48.200;12.418;2022-11-04T14:43:18;2.13;;;0.30;;
50976;SDS011;36992;48.200;12.418;2022-11-04T14:45:57;2.05;;;0.57;;
50976;SDS011;36992;48.200;12.418;2022-11-04T14:48:26;1.75;;;0.40;;
50976;SDS011;36992;48.200;12.418;2022-11-04T14:50:54;1.60;;;0.47;;
50976;SDS011;36992;48.200;12.418;2022-11-04T14:53:22;1.92;;;0.40;;
50976;SDS011;36992;48.200;12.418;2022-11-04T14:56:05;2.45;;;0.70;;
50976;SDS011;36992;48.200;12.418;2022-11-04T14:58:48;4.18;;;1.25;;
50976;SDS011;36992;48.200;12.418;2022-11-04T15:01:20;7.80;;;2.42;;
50976;SDS011;36992;48.200;12.418;2022-11-04T15:03:48;3.63;;;1.23;;
50976;SDS011;36992;48.200;12.418;2022-11-04T15:06:22;6.82;;;2.63;;
50976;SDS011;36992;48.200;12.418;2022-11-04T15:08:50;5.53;;;1.60;;
50976;SDS011;36992;48.200;12.418;2022-11-04T15:11:19;3.45;;;1.45;;
50976;SDS011;36992;48.200;12.418;2022-11-04T15:14:03;3.97;;;2.13;;
50976;SDS011;36992;48.200;12.418;2022-11-04T15:16:39;1.80;;;0.77;;
50976;SDS011;36992;48.200;12.418;2022-11-04T15:19:07;2.08;;;0.70;;